Terminal Aerodrome Forecast
Issued by NWS Shreveport, LA

Home | Current Version | Previous Version | Text Only | Print | Product List | Glossary On
Versions: 1 2 3 4 5 6 7 8 9 10 11 12
000
FTUS44 KSHV 011744
TAFSHV
TAF
KSHV 011744Z 0118/0218 16007KT P6SM SCT035 BKN150
     FM012100 16007KT P6SM VCTS SCT045CB BKN120
     FM020100 18004KT P6SM BKN150 BKN250
     FM020900 VRB03KT P6SM BKN100
     FM021600 VRB04KT P6SM SCT035 BKN090=

USA.gov is the U.S. government's official web portal to all federal, state and local government web resources and services.